»·PEaware :: AAL899 KLAX-KPHX

AAL899 :: KLAX-KPHX

FLIGHT INFORMATION

Flight Status: Arrived
Operator:
American Airlines
More flights by this operator :: More flights under this callsign
Pilot: John C. (18682)
Aircraft: AIRBUS A320
(A320)
More flights by this aircraft type
Origin: KLAX Los Angeles Intl
United States
Destination: KPHX Phoenix Sky Harbor Intl
United States
More flights between these airports :: More routes between these airports
Route: DOTSS2 CNERY BLH HYDRR1
File this flight plan on PilotEdge
Remarks:
Altitude:
(Current/Filed)
33,000ft
Speed:
(Current/Filed)
451kts
Departed: 25-Nov-18 02:13 PM
Arrived: 25-Nov-18 03:10 PM
Distance/Time
Traveled:
321nm/0:56
Distance/Time
To Go:
Arrived

Flight Plot

Page will automatically refresh every two minutes.

Flight plan parsing failed; only flown route is shown


Map Options




Map Legend


Flown Route
Filed Route
Departure Airport
Arrival Airport
Navaid (VOR, NDB)
Fix

Horizontal Profiles

Position Reports

Time Latitude Longitude Heading Altitude Ground
Speed
25-Nov-18 13:54 33.941150 -118.407429 81 124ft 0kts
25-Nov-18 13:55 33.941150 -118.407429 81 124ft 0kts
25-Nov-18 13:56 33.941150 -118.407429 81 124ft 0kts
25-Nov-18 13:57 33.941150 -118.407429 81 124ft 0kts
25-Nov-18 13:58 33.941150 -118.407429 81 124ft 0kts
25-Nov-18 13:59 33.941150 -118.407429 81 124ft 0kts
25-Nov-18 14:00 33.941150 -118.407429 81 124ft 0kts
25-Nov-18 14:01 33.941150 -118.407429 81 124ft 0kts
25-Nov-18 14:02 33.941150 -118.407429 81 124ft 0kts
25-Nov-18 14:03 33.941150 -118.407429 81 124ft 0kts
25-Nov-18 14:04 33.941150 -118.407429 81 124ft 0kts
25-Nov-18 14:05 33.941106 -118.407791 81 124ft 2kts
25-Nov-18 14:06 33.941258 -118.408227 174 125ft 1kts
25-Nov-18 14:07 33.941314 -118.408230 173 125ft 0kts
25-Nov-18 14:08 33.941312 -118.408230 173 125ft 0kts
25-Nov-18 14:09 33.939526 -118.407960 173 127ft 0kts
25-Nov-18 14:10 33.938936 -118.407652 122 127ft 13kts
25-Nov-18 14:11 33.939414 -118.401820 82 121ft 24kts
25-Nov-18 14:12 33.940008 -118.396026 83 111ft 15kts
25-Nov-18 14:13 33.939618 -118.391698 82 108ft 23kts
25-Nov-18 14:14 33.940337 -118.384717 82 104ft 25kts
25-Nov-18 14:15 33.940689 -118.380633 117 101ft 2kts
25-Nov-18 14:16 33.939598 -118.382512 264 101ft 46kts
25-Nov-18 14:17 33.934478 -118.432788 262 2176ft 193kts
25-Nov-18 14:18 33.905459 -118.498587 232 4669ft 270kts
25-Nov-18 14:19 33.851201 -118.558581 191 8200ft 289kts
25-Nov-18 14:20 33.769770 -118.540885 168 11021ft 326kts
25-Nov-18 14:21 33.686910 -118.486429 114 13037ft 372kts
25-Nov-18 14:22 33.651955 -118.368668 109 15491ft 388kts
25-Nov-18 14:23 33.644547 -118.239666 89 17669ft 402kts
25-Nov-18 14:24 33.644642 -118.105854 89 19633ft 416kts
25-Nov-18 14:25 33.644505 -117.979089 89 21278ft 427kts
25-Nov-18 14:26 33.644230 -117.845369 89 22825ft 439kts
25-Nov-18 14:27 33.622497 -117.707153 106 24277ft 450kts
25-Nov-18 14:28 33.587363 -117.565018 106 25670ft 460kts
25-Nov-18 14:29 33.551591 -117.420794 107 26951ft 469kts
25-Nov-18 14:30 33.515161 -117.274741 108 28102ft 478kts
25-Nov-18 14:31 33.503196 -117.116764 91 29145ft 488kts
25-Nov-18 14:32 33.501048 -116.954729 91 30261ft 492kts
25-Nov-18 14:33 33.498564 -116.791254 91 31595ft 490kts
25-Nov-18 14:34 33.495886 -116.629957 91 32806ft 488kts
25-Nov-18 14:35 33.493020 -116.469813 91 33064ft 486kts
25-Nov-18 14:36 33.490465 -116.309203 91 33057ft 487kts
25-Nov-18 14:37 33.488079 -116.155202 91 33058ft 487kts
25-Nov-18 14:38 33.497505 -115.994890 70 33062ft 489kts
25-Nov-18 14:39 33.542551 -115.841148 69 33068ft 488kts
25-Nov-18 14:40 33.587027 -115.688348 69 33054ft 487kts
25-Nov-18 14:41 33.626816 -115.533242 84 33053ft 489kts
25-Nov-18 14:42 33.613700 -115.371509 93 33097ft 489kts
25-Nov-18 14:43 33.608661 -115.210900 92 33095ft 486kts
25-Nov-18 14:44 33.604274 -115.048792 92 33074ft 486kts
25-Nov-18 14:45 33.599736 -114.887149 91 32690ft 487kts
25-Nov-18 14:46 33.589277 -114.725976 102 31237ft 487kts
25-Nov-18 14:47 33.558965 -114.570156 102 29782ft 474kts
25-Nov-18 14:48 33.529337 -114.418749 102 28285ft 463kts
25-Nov-18 14:49 33.501898 -114.279627 102 26968ft 451kts
25-Nov-18 14:50 33.473508 -114.135431 102 25588ft 441kts
25-Nov-18 14:51 33.445673 -113.996290 102 24418ft 425kts
25-Nov-18 14:52 33.418220 -113.859800 102 23424ft 420kts
25-Nov-18 14:53 33.391192 -113.725775 102 22449ft 413kts
25-Nov-18 14:54 33.364429 -113.593851 102 21496ft 406kts
25-Nov-18 14:55 33.337865 -113.463568 101 20521ft 400kts
25-Nov-18 14:56 33.316013 -113.337493 100 18632ft 387kts
25-Nov-18 14:57 33.295008 -113.213686 97 16724ft 375kts
25-Nov-18 14:58 33.277795 -113.093657 98 15171ft 353kts
25-Nov-18 14:59 33.276631 -112.980863 86 13626ft 335kts
25-Nov-18 15:00 33.279330 -112.871499 86 11997ft 323kts
25-Nov-18 15:01 33.298108 -112.774539 64 10922ft 294kts
25-Nov-18 15:02 33.330032 -112.689446 64 10119ft 265kts
25-Nov-18 15:03 33.359782 -112.611547 63 9078ft 253kts
25-Nov-18 15:04 33.388265 -112.536855 64 8204ft 238kts
25-Nov-18 15:05 33.414858 -112.464694 65 7539ft 234kts
25-Nov-18 15:06 33.428686 -112.389842 88 6521ft 236kts
25-Nov-18 15:07 33.428708 -112.313993 89 5795ft 219kts
25-Nov-18 15:08 33.434824 -112.248595 77 4654ft 193kts
25-Nov-18 15:09 33.441223 -112.184852 88 3700ft 190kts
25-Nov-18 15:10 33.441012 -112.125775 88 2723ft 168kts
25-Nov-18 15:11 33.440895 -112.077613 88 1963ft 135kts
25-Nov-18 15:12 33.440850 -112.033049 87 1258ft 135kts
25-Nov-18 15:13 33.440285 -112.007374 162 1131ft 15kts
25-Nov-18 15:14 33.439012 -112.005299 89 1131ft 15kts
25-Nov-18 15:15 33.439062 -111.999104 89 1134ft 14kts
25-Nov-18 15:16 33.437573 -111.998822 272 1132ft 0kts
25-Nov-18 15:17 33.437572 -111.998808 272 1132ft 0kts

Navigation Log

Ident Type
Flight plan parsing failed, navigation log unavailable